Time;durP1;ratioP1;P1;durP2;ratioP2;P2;SDS_P1;SDS_P2;PMS_P1;PMS_P2;Temp;Humidity;BMP_temperature;BMP_pressure;BME280_temperature;BME280_humidity;BME280_pressure;Samples;Min_cycle;Max_cycle;Signal;HPM_P1;HPM_P2
2024/03/27 00:00:52;;;;;;;13.40;5.33;;;4.80;99.90;;;;;;4955467;28;20069;-85
2024/03/27 00:03:17;;;;;;;9.23;4.60;;;4.80;99.90;;;;;;4937532;28;20097;-85
2024/03/27 00:05:43;;;;;;;11.70;5.20;;;4.80;99.90;;;;;;4954698;28;20023;-85
2024/03/27 00:08:09;;;;;;;11.13;4.80;;;4.80;99.90;;;;;;4937452;28;20019;-87
2024/03/27 00:10:34;;;;;;;10.07;5.07;;;4.80;99.90;;;;;;4956274;28;20023;-85
2024/03/27 00:13:00;;;;;;;7.60;4.30;;;4.90;99.90;;;;;;4957381;28;20614;-85
2024/03/27 00:15:28;;;;;;;9.67;4.07;;;4.80;99.90;;;;;;4955917;28;20077;-85
2024/03/27 00:17:53;;;;;;;7.70;4.57;;;4.80;99.90;;;;;;4958230;28;20027;-85
2024/03/27 00:20:19;;;;;;;7.50;4.80;;;4.80;99.90;;;;;;4955682;28;20624;-88
2024/03/27 00:22:45;;;;;;;8.50;4.73;;;4.80;99.90;;;;;;4956438;28;20027;-86
2024/03/27 00:25:10;;;;;;;9.07;4.73;;;4.80;99.90;;;;;;4957107;28;20035;-86
2024/03/27 00:27:36;;;;;;;9.27;4.97;;;4.80;99.90;;;;;;4952563;28;20031;-86
2024/03/27 00:30:01;;;;;;;8.47;3.97;;;4.80;99.90;;;;;;4955860;28;20027;-86
2024/03/27 00:32:27;;;;;;;7.07;4.13;;;4.80;99.90;;;;;;4957880;28;20054;-85
2024/03/27 00:34:52;;;;;;;11.33;5.10;;;4.70;99.90;;;;;;4941499;28;21390;-86
2024/03/27 00:37:18;;;;;;;8.83;4.90;;;4.70;99.90;;;;;;4956565;28;20031;-85
2024/03/27 00:39:43;;;;;;;6.83;4.30;;;4.70;99.90;;;;;;4954971;28;20537;-86
2024/03/27 00:42:09;;;;;;;10.20;5.07;;;4.70;99.90;;;;;;4945617;28;21464;-85
2024/03/27 00:44:34;;;;;;;8.07;4.77;;;4.70;99.90;;;;;;4957810;28;20507;-86
2024/03/27 00:47:00;;;;;;;12.00;5.10;;;4.70;99.90;;;;;;4955477;28;20567;-86
2024/03/27 00:49:26;;;;;;;15.83;5.43;;;4.70;99.90;;;;;;4954819;28;20022;-86
2024/03/27 00:51:51;;;;;;;14.90;4.50;;;4.70;99.90;;;;;;4956119;28;20463;-86
2024/03/27 00:54:17;;;;;;;10.23;4.03;;;4.70;99.90;;;;;;4954005;28;20398;-85
2024/03/27 00:56:43;;;;;;;10.23;5.10;;;4.80;99.90;;;;;;4938253;28;21260;-85
2024/03/27 00:59:09;;;;;;;14.43;5.00;;;4.80;99.90;;;;;;4954800;28;20039;-86
2024/03/27 01:01:34;;;;;;;9.00;5.13;;;4.80;99.90;;;;;;4954954;28;20443;-85
2024/03/27 01:04:00;;;;;;;11.17;4.93;;;4.80;99.90;;;;;;4956579;28;20035;-85
2024/03/27 01:06:25;;;;;;;12.30;4.57;;;4.80;99.90;;;;;;4954828;28;20054;-85
2024/03/27 01:08:51;;;;;;;10.43;4.23;;;4.80;99.90;;;;;;4939617;28;20057;-86
2024/03/27 01:11:16;;;;;;;8.37;4.67;;;4.80;99.90;;;;;;4955292;28;20032;-85
2024/03/27 01:13:42;;;;;;;11.63;5.60;;;4.80;99.90;;;;;;4954891;28;20038;-86
2024/03/27 01:16:07;;;;;;;11.20;4.63;;;4.80;99.90;;;;;;4953065;28;20030;-86
2024/03/27 01:18:33;;;;;;;8.90;4.93;;;4.80;99.90;;;;;;4956261;28;20519;-85
2024/03/27 01:20:59;;;;;;;11.00;5.23;;;4.90;99.90;;;;;;4957919;28;20037;-85
2024/03/27 01:23:24;;;;;;;10.57;4.53;;;4.90;99.90;;;;;;4958017;28;20027;-86
2024/03/27 01:25:50;;;;;;;10.70;4.73;;;4.90;99.90;;;;;;4959740;28;20086;-85
2024/03/27 01:28:15;;;;;;;11.07;4.53;;;5.00;99.90;;;;;;4962404;28;20069;-85
2024/03/27 01:30:41;;;;;;;11.70;5.20;;;5.00;99.90;;;;;;4961953;28;20030;-85
2024/03/27 01:33:07;;;;;;;11.60;4.80;;;5.00;99.90;;;;;;4960956;28;20039;-86
2024/03/27 01:35:32;;;;;;;9.63;4.17;;;5.10;99.90;;;;;;4958549;28;20113;-85
2024/03/27 01:37:58;;;;;;;9.50;4.50;;;5.10;99.90;;;;;;4942201;28;20030;-85
2024/03/27 01:40:24;;;;;;;10.87;4.40;;;5.10;99.90;;;;;;4956583;28;20034;-86
2024/03/27 01:42:59;;;;;;;8.93;4.30;;;5.20;99.90;;;;;;4959148;28;20118;-85
2024/03/27 01:45:25;;;;;;;10.67;5.17;;;5.20;99.90;;;;;;4956863;28;20027;-85
2024/03/27 01:47:51;;;;;;;9.10;4.17;;;5.20;99.90;;;;;;4957712;28;20385;-85
2024/03/27 01:50:17;;;;;;;8.93;4.70;;;5.20;99.90;;;;;;4959922;28;20778;-85
2024/03/27 01:52:44;;;;;;;8.07;4.23;;;5.20;99.90;;;;;;4959543;28;20023;-85
2024/03/27 01:55:11;;;;;;;13.37;5.20;;;5.10;99.90;;;;;;4957794;28;20031;-85
2024/03/27 01:57:38;;;;;;;8.37;5.03;;;5.10;99.90;;;;;;4959038;28;20030;-85
2024/03/27 02:00:05;;;;;;;9.03;4.53;;;5.10;99.90;;;;;;4956327;28;20789;-85
2024/03/27 02:02:35;;;;;;;7.23;4.10;;;5.10;99.90;;;;;;4959193;28;20060;-86
2024/03/27 02:05:00;;;;;;;10.47;5.07;;;5.10;99.90;;;;;;4957401;28;20035;-86
2024/03/27 02:07:26;;;;;;;16.23;4.73;;;5.10;99.90;;;;;;4957357;28;20027;-85
2024/03/27 02:09:53;;;;;;;12.63;5.20;;;5.10;99.90;;;;;;4956478;28;20039;-85
2024/03/27 02:12:19;;;;;;;9.20;5.53;;;5.10;99.90;;;;;;4959075;28;20029;-85
2024/03/27 02:14:46;;;;;;;13.07;6.43;;;5.00;99.90;;;;;;4940936;28;20042;-86
2024/03/27 02:17:11;;;;;;;15.37;7.43;;;5.00;99.90;;;;;;4959285;28;20054;-86
2024/03/27 02:19:37;;;;;;;13.40;7.10;;;5.00;99.90;;;;;;4955727;28;20114;-86
2024/03/27 02:22:02;;;;;;;13.20;7.50;;;5.00;99.90;;;;;;4959054;28;20117;-86
2024/03/27 02:24:46;;;;;;;12.03;6.57;;;5.00;99.90;;;;;;4957761;28;20060;-86
2024/03/27 02:27:12;;;;;;;10.07;6.70;;;5.00;99.90;;;;;;4956776;28;20039;-86
2024/03/27 02:29:38;;;;;;;13.33;7.17;;;5.10;99.90;;;;;;4956996;28;20027;-86
2024/03/27 02:32:04;;;;;;;13.23;7.97;;;5.00;99.90;;;;;;4956925;28;20031;-86
2024/03/27 02:34:30;;;;;;;13.57;7.07;;;5.00;99.90;;;;;;4956809;28;20522;-85
2024/03/27 02:36:55;;;;;;;15.47;7.93;;;5.10;99.90;;;;;;4962854;28;20027;-85
2024/03/27 02:39:21;;;;;;;12.53;7.90;;;5.10;99.90;;;;;;4960233;28;20019;-86
2024/03/27 02:41:46;;;;;;;11.33;7.20;;;5.10;99.90;;;;;;4955563;28;20035;-86
2024/03/27 02:44:12;;;;;;;12.87;7.70;;;5.10;99.90;;;;;;4956385;28;20047;-85
2024/03/27 02:46:37;;;;;;;12.90;7.10;;;5.10;99.90;;;;;;4955471;28;20031;-85
2024/03/27 02:49:03;;;;;;;13.40;7.20;;;5.00;99.90;;;;;;4956247;28;20027;-86
2024/03/27 02:51:29;;;;;;;15.70;7.00;;;5.00;99.90;;;;;;4957060;28;20166;-85
2024/03/27 02:53:54;;;;;;;12.80;7.33;;;5.00;99.90;;;;;;4956937;28;20209;-85
2024/03/27 02:56:20;;;;;;;13.87;7.00;;;5.00;99.90;;;;;;4956740;28;20019;-85
2024/03/27 02:58:46;;;;;;;12.90;7.77;;;4.90;99.90;;;;;;4958814;28;20040;-86
2024/03/27 03:01:12;;;;;;;15.43;7.53;;;4.90;99.90;;;;;;4958088;28;20031;-85
2024/03/27 03:03:37;;;;;;;11.50;6.77;;;4.90;99.90;;;;;;4956781;28;20723;-85
2024/03/27 03:06:03;;;;;;;15.17;6.73;;;4.90;99.90;;;;;;4954687;28;20039;-85
2024/03/27 03:08:30;;;;;;;14.60;7.60;;;4.90;99.90;;;;;;4957067;28;20082;-86
2024/03/27 03:10:55;;;;;;;12.13;7.30;;;4.90;99.90;;;;;;4956278;28;20341;-85
2024/03/27 03:13:21;;;;;;;13.17;7.50;;;4.90;99.90;;;;;;4954544;28;20034;-85
2024/03/27 03:15:47;;;;;;;13.63;7.07;;;4.80;99.90;;;;;;4938307;28;20031;-85
2024/03/27 03:18:12;;;;;;;14.27;7.30;;;4.80;99.90;;;;;;4956558;28;20465;-85
2024/03/27 03:20:38;;;;;;;16.07;7.00;;;4.80;99.90;;;;;;4958310;28;20027;-85
2024/03/27 03:23:04;;;;;;;13.97;6.70;;;4.80;99.90;;;;;;4959351;28;20033;-85
2024/03/27 03:25:29;;;;;;;15.67;6.87;;;4.80;99.90;;;;;;4956653;28;20791;-86
2024/03/27 03:27:55;;;;;;;15.00;7.17;;;4.80;99.90;;;;;;4954875;28;20065;-85
2024/03/27 03:30:21;;;;;;;11.23;7.40;;;4.80;99.90;;;;;;4957505;28;20497;-85
2024/03/27 03:32:46;;;;;;;16.63;7.50;;;4.80;99.90;;;;;;4955990;28;20442;-85
2024/03/27 03:35:12;;;;;;;16.83;7.60;;;4.80;99.90;;;;;;4956394;28;20031;-86
2024/03/27 03:37:37;;;;;;;11.97;7.27;;;4.70;99.90;;;;;;4956703;28;20039;-86
2024/03/27 03:40:06;;;;;;;12.30;7.23;;;4.70;99.90;;;;;;4957541;28;20113;-85
2024/03/27 03:42:31;;;;;;;14.03;6.87;;;4.70;99.90;;;;;;4955146;28;20031;-85
2024/03/27 03:44:57;;;;;;;10.37;7.13;;;4.70;99.90;;;;;;4935603;28;20035;-85
2024/03/27 03:47:22;;;;;;;12.60;7.00;;;4.70;99.90;;;;;;4955074;28;20122;-86
2024/03/27 03:49:48;;;;;;;14.50;7.93;;;4.60;99.90;;;;;;4956876;28;20157;-85
2024/03/27 03:52:14;;;;;;;11.80;7.13;;;4.60;99.90;;;;;;4955185;28;20062;-86
2024/03/27 03:54:39;;;;;;;12.90;7.40;;;4.60;99.90;;;;;;4956189;28;20030;-85
2024/03/27 03:57:05;;;;;;;13.33;7.13;;;4.60;99.90;;;;;;4955682;28;20015;-85
2024/03/27 03:59:30;;;;;;;12.33;6.50;;;4.60;99.90;;;;;;4953733;28;20110;-85
2024/03/27 04:01:56;;;;;;;14.13;6.40;;;4.60;99.90;;;;;;4952909;28;20034;-86
2024/03/27 04:04:21;;;;;;;13.03;6.40;;;4.60;99.90;;;;;;4956528;28;20081;-85
2024/03/27 04:06:47;;;;;;;10.90;6.43;;;4.60;99.90;;;;;;4955812;28;20613;-85
2024/03/27 04:09:13;;;;;;;14.90;7.27;;;4.60;99.90;;;;;;4954332;28;20073;-85
2024/03/27 04:11:38;;;;;;;17.43;7.20;;;4.60;99.90;;;;;;4956875;28;20022;-85
2024/03/27 04:14:04;;;;;;;13.47;6.80;;;4.60;99.90;;;;;;4955758;28;20031;-85
2024/03/27 04:16:30;;;;;;;11.73;6.47;;;4.50;99.90;;;;;;4953385;28;20050;-85
2024/03/27 04:18:57;;;;;;;12.03;7.10;;;4.50;99.90;;;;;;4956504;28;20023;-86
2024/03/27 04:21:24;;;;;;;13.00;6.60;;;4.40;99.90;;;;;;4955217;28;20026;-85
2024/03/27 04:23:49;;;;;;;12.60;6.80;;;4.40;99.90;;;;;;4957150;28;20031;-85
2024/03/27 04:26:16;;;;;;;12.60;7.23;;;4.30;99.90;;;;;;4955428;28;20034;-85
2024/03/27 04:28:42;;;;;;;17.57;7.37;;;4.30;99.90;;;;;;4959864;28;20043;-85
2024/03/27 04:31:09;;;;;;;10.70;6.50;;;4.30;99.90;;;;;;4963703;28;20058;-85
2024/03/27 04:33:35;;;;;;;13.50;7.07;;;4.30;99.90;;;;;;4956175;28;20892;-85
2024/03/27 04:36:01;;;;;;;17.07;7.20;;;4.20;99.90;;;;;;4958071;28;20031;-85
2024/03/27 04:38:26;;;;;;;17.27;7.13;;;4.20;99.90;;;;;;4956205;28;20050;-85
2024/03/27 04:40:52;;;;;;;13.30;7.33;;;4.20;99.90;;;;;;4957896;28;20126;-85
2024/03/27 04:43:18;;;;;;;14.13;6.73;;;4.20;99.90;;;;;;4956417;28;20110;-85
2024/03/27 04:45:44;;;;;;;13.67;7.00;;;4.20;99.90;;;;;;4955369;28;20788;-85
2024/03/27 04:48:10;;;;;;;28.00;16.10;;;4.20;99.90;;;;;;4955232;28;20034;-84
2024/03/27 04:50:36;;;;;;;19.97;10.40;;;4.20;99.90;;;;;;4937337;28;20026;-85
2024/03/27 04:53:01;;;;;;;27.27;17.47;;;4.20;99.90;;;;;;4955542;28;20035;-85
2024/03/27 04:55:27;;;;;;;19.83;12.60;;;4.20;99.90;;;;;;4960027;28;20471;-85
2024/03/27 04:57:52;;;;;;;17.87;8.77;;;4.20;99.90;;;;;;4960872;28;20031;-85
2024/03/27 05:00:18;;;;;;;13.87;7.63;;;4.30;99.90;;;;;;4957343;28;20034;-85
2024/03/27 05:02:44;;;;;;;21.07;13.20;;;4.30;99.90;;;;;;4960784;28;20034;-85
2024/03/27 05:05:10;;;;;;;17.03;8.80;;;4.30;99.90;;;;;;4960983;28;20034;-85
2024/03/27 05:07:36;;;;;;;16.47;6.90;;;4.30;99.90;;;;;;4963953;28;20028;-85
2024/03/27 05:10:01;;;;;;;10.73;6.20;;;4.20;99.90;;;;;;4962142;28;20030;-85
2024/03/27 05:12:27;;;;;;;13.37;6.23;;;4.20;99.90;;;;;;4959759;28;20496;-85
2024/03/27 05:14:53;;;;;;;13.70;6.23;;;4.30;99.90;;;;;;4942950;28;20082;-86
2024/03/27 05:17:18;;;;;;;17.80;12.50;;;4.30;99.90;;;;;;4958488;28;20042;-85
2024/03/27 05:19:44;;;;;;;16.27;7.60;;;4.30;99.90;;;;;;4957461;28;20035;-86
2024/03/27 05:22:15;;;;;;;11.77;6.00;;;4.30;99.90;;;;;;4958996;28;20065;-85
2024/03/27 05:24:44;;;;;;;12.73;5.87;;;4.30;99.90;;;;;;4956553;28;20484;-86
2024/03/27 05:27:10;;;;;;;10.70;7.10;;;4.30;99.90;;;;;;4959059;28;20669;-86
2024/03/27 05:29:36;;;;;;;12.63;7.60;;;4.30;99.90;;;;;;4959961;28;20034;-86
2024/03/27 05:32:02;;;;;;;10.87;5.47;;;4.30;99.90;;;;;;4959056;28;20031;-86
2024/03/27 05:34:27;;;;;;;13.17;6.30;;;4.30;99.90;;;;;;4960274;28;20037;-86
2024/03/27 05:36:53;;;;;;;11.77;5.47;;;4.40;99.90;;;;;;4958423;28;20037;-86
2024/03/27 05:39:22;;;;;;;12.13;5.80;;;4.40;99.90;;;;;;4959869;28;20501;-85
2024/03/27 05:41:47;;;;;;;12.67;8.63;;;4.40;99.90;;;;;;4960867;28;20073;-86
2024/03/27 05:44:13;;;;;;;9.47;5.63;;;4.40;99.90;;;;;;4959113;28;20495;-85
2024/03/27 05:46:40;;;;;;;12.43;6.27;;;4.50;99.90;;;;;;4958734;28;20081;-86
2024/03/27 05:49:06;;;;;;;9.67;5.90;;;4.50;99.90;;;;;;4958529;28;20022;-87
2024/03/27 05:51:34;;;;;;;9.90;5.27;;;4.50;99.90;;;;;;4956123;28;20108;-86
2024/03/27 05:54:00;;;;;;;10.43;6.00;;;4.50;99.90;;;;;;4952125;28;20034;-85
2024/03/27 05:56:25;;;;;;;7.77;5.47;;;4.50;99.90;;;;;;4957277;28;20035;-85
2024/03/27 05:58:52;;;;;;;11.63;5.63;;;4.50;99.90;;;;;;4956381;28;20084;-85
2024/03/27 06:01:17;;;;;;;12.33;5.63;;;4.60;99.90;;;;;;4958691;28;20050;-86
2024/03/27 06:03:47;;;;;;;9.67;5.70;;;4.70;99.90;;;;;;4954830;28;20043;-86
2024/03/27 06:06:13;;;;;;;13.13;5.20;;;4.70;99.90;;;;;;4955789;28;20043;-86
2024/03/27 06:08:39;;;;;;;11.40;5.40;;;4.80;99.90;;;;;;4957998;28;20030;-86
2024/03/27 06:11:04;;;;;;;10.23;5.30;;;4.90;99.90;;;;;;4956657;28;20101;-87
2024/03/27 06:13:30;;;;;;;14.97;7.43;;;5.00;99.90;;;;;;4955077;28;20122;-86
2024/03/27 06:15:55;;;;;;;12.20;5.90;;;5.10;99.90;;;;;;4956928;28;20542;-86
2024/03/27 06:18:21;;;;;;;14.47;5.50;;;5.10;99.90;;;;;;4958988;28;20162;-86
2024/03/27 06:20:47;;;;;;;16.10;5.57;;;5.30;99.90;;;;;;4959720;28;20031;-86
2024/03/27 06:23:13;;;;;;;16.27;5.03;;;5.40;99.90;;;;;;4955463;28;20468;-85
2024/03/27 06:25:40;;;;;;;13.13;5.83;;;5.40;99.90;;;;;;4956662;28;20147;-86
2024/03/27 06:28:05;;;;;;;12.13;6.70;;;5.60;99.90;;;;;;4956875;28;20033;-86
2024/03/27 06:30:34;;;;;;;12.47;6.23;;;5.70;99.90;;;;;;4957731;28;20408;-86
2024/03/27 06:32:59;;;;;;;14.73;6.10;;;5.70;99.90;;;;;;4955801;28;20082;-86
2024/03/27 06:35:26;;;;;;;18.13;5.80;;;5.80;99.90;;;;;;4952272;28;20015;-86
2024/03/27 06:37:51;;;;;;;17.43;7.10;;;6.00;99.90;;;;;;4955750;28;20031;-86
2024/03/27 06:40:17;;;;;;;9.77;5.10;;;6.00;99.90;;;;;;4955888;28;20561;-86
2024/03/27 06:42:42;;;;;;;21.43;7.17;;;6.20;99.90;;;;;;4955801;28;20509;-86
2024/03/27 06:45:08;;;;;;;10.70;5.90;;;6.30;99.90;;;;;;4953260;28;20023;-86
2024/03/27 06:47:34;;;;;;;9.73;5.37;;;6.40;99.90;;;;;;4939747;28;20057;-86
2024/03/27 06:49:59;;;;;;;12.87;6.10;;;6.50;99.90;;;;;;4938760;28;20038;-86
2024/03/27 06:52:25;;;;;;;14.83;7.43;;;6.60;99.90;;;;;;4956533;28;20109;-86
2024/03/27 06:54:51;;;;;;;15.63;5.77;;;6.70;99.90;;;;;;4938346;28;20038;-86
2024/03/27 06:57:20;;;;;;;17.97;6.33;;;6.80;99.90;;;;;;4956330;28;20042;-86
2024/03/27 06:59:45;;;;;;;12.03;6.23;;;6.90;99.90;;;;;;4953149;28;20035;-86
2024/03/27 07:02:11;;;;;;;14.97;6.90;;;7.00;99.90;;;;;;4935990;28;20089;-85
2024/03/27 07:04:37;;;;;;;11.53;6.20;;;7.00;99.90;;;;;;4956174;28;20030;-86
2024/03/27 07:07:03;;;;;;;20.67;7.37;;;7.20;99.90;;;;;;4953644;28;20032;-85
2024/03/27 07:09:30;;;;;;;19.30;6.03;;;7.20;99.90;;;;;;4955123;28;20030;-86
2024/03/27 07:11:56;;;;;;;17.03;7.90;;;7.30;99.90;;;;;;4955248;28;20922;-86
2024/03/27 07:14:22;;;;;;;17.47;6.50;;;7.40;99.90;;;;;;4956008;28;20033;-87
2024/03/27 07:16:47;;;;;;;16.87;6.30;;;7.50;99.90;;;;;;4953852;28;20037;-86
2024/03/27 07:19:13;;;;;;;13.33;5.73;;;7.60;99.90;;;;;;4954752;28;20109;-85
2024/03/27 07:21:38;;;;;;;15.43;6.07;;;7.70;99.90;;;;;;4955719;28;20033;-85
2024/03/27 07:24:04;;;;;;;12.37;5.20;;;7.80;99.90;;;;;;4956212;28;20783;-87
2024/03/27 07:26:39;;;;;;;16.70;5.23;;;7.90;99.90;;;;;;4956968;28;20017;-84
2024/03/27 07:29:05;;;;;;;12.85;5.25;;;8.00;99.90;;;;;;4957321;28;20026;-75
2024/03/27 07:31:31;;;;;;;10.23;5.37;;;8.10;99.90;;;;;;4957217;28;20041;-84
2024/03/27 07:33:57;;;;;;;18.93;5.63;;;8.20;99.90;;;;;;4938065;28;20038;-84
2024/03/27 07:36:23;;;;;;;11.60;4.97;;;8.40;99.90;;;;;;4956461;28;20023;-84
2024/03/27 07:38:49;;;;;;;13.90;5.07;;;8.50;99.90;;;;;;4956212;28;20145;-84
2024/03/27 07:41:15;;;;;;;14.07;4.80;;;8.70;99.90;;;;;;4939537;28;20645;-84
2024/03/27 07:43:41;;;;;;;12.30;5.33;;;8.80;99.90;;;;;;4957791;28;20027;-84
2024/03/27 07:46:07;;;;;;;21.50;4.90;;;9.00;99.90;;;;;;4954341;28;20043;-83
2024/03/27 07:48:34;;;;;;;19.03;4.93;;;9.10;99.90;;;;;;4938604;28;20022;-84
2024/03/27 07:51:00;;;;;;;14.47;5.03;;;9.30;99.90;;;;;;4956941;28;20031;-84
2024/03/27 07:53:27;;;;;;;13.87;4.70;;;9.50;99.90;;;;;;4956485;28;20114;-84
2024/03/27 07:56:03;;;;;;;11.30;5.53;;;9.70;99.90;;;;;;4957588;28;20026;-84
2024/03/27 07:58:29;;;;;;;12.40;4.87;;;9.80;99.90;;;;;;4957687;28;20439;-84
2024/03/27 08:00:56;;;;;;;11.17;4.80;;;9.90;99.90;;;;;;4956185;28;20038;-84
2024/03/27 08:03:22;;;;;;;12.60;4.87;;;9.90;99.90;;;;;;4957528;28;20023;-84
2024/03/27 08:05:48;;;;;;;11.47;5.17;;;10.00;99.90;;;;;;4955218;28;20039;-84
2024/03/27 08:08:14;;;;;;;12.70;6.27;;;10.00;99.90;;;;;;4939170;28;20066;-84
2024/03/27 08:10:40;;;;;;;13.40;4.87;;;10.10;99.90;;;;;;4957597;28;20050;-84
2024/03/27 08:13:06;;;;;;;13.87;4.80;;;10.20;99.90;;;;;;4957978;28;20054;-84
2024/03/27 08:15:38;;;;;;;10.17;4.73;;;10.30;99.90;;;;;;4939998;28;21489;-83
2024/03/27 08:18:03;;;;;;;12.37;4.70;;;10.30;99.90;;;;;;4958504;28;20094;-84
2024/03/27 08:20:29;;;;;;;19.77;5.73;;;10.40;99.90;;;;;;4957623;28;20634;-84
2024/03/27 08:22:56;;;;;;;17.80;5.47;;;10.40;99.90;;;;;;4957826;28;20086;-84
2024/03/27 08:25:21;;;;;;;10.63;4.50;;;10.40;99.90;;;;;;4955851;28;20035;-83
2024/03/27 08:27:47;;;;;;;9.90;4.93;;;10.40;99.90;;;;;;4940524;28;20027;-84
2024/03/27 08:30:12;;;;;;;15.90;5.07;;;10.40;99.90;;;;;;4939999;28;20081;-84
2024/03/27 08:32:39;;;;;;;14.47;4.83;;;10.40;99.90;;;;;;4959486;28;20059;-84
2024/03/27 08:35:04;;;;;;;13.67;4.83;;;10.50;99.90;;;;;;4956668;28;20078;-84
2024/03/27 08:37:30;;;;;;;11.43;5.27;;;10.50;99.90;;;;;;4958108;28;20031;-84
2024/03/27 08:39:55;;;;;;;10.33;4.70;;;10.60;99.90;;;;;;4961536;28;20023;-85
2024/03/27 08:42:21;;;;;;;12.67;4.60;;;10.60;99.90;;;;;;4961674;28;20038;-84
2024/03/27 08:44:47;;;;;;;11.83;4.33;;;10.70;99.90;;;;;;4961356;28;20047;-85
2024/03/27 08:47:12;;;;;;;12.53;4.47;;;10.80;99.90;;;;;;4959426;28;20637;-84
2024/03/27 08:49:38;;;;;;;16.63;4.60;;;10.80;99.90;;;;;;4958740;28;20039;-84
2024/03/27 08:52:03;;;;;;;9.70;4.30;;;10.90;99.90;;;;;;4957140;28;20034;-84
2024/03/27 08:54:29;;;;;;;10.60;4.10;;;10.90;99.90;;;;;;4956117;28;20410;-84
2024/03/27 08:56:54;;;;;;;10.17;4.40;;;11.00;99.90;;;;;;4955941;28;20085;-84
2024/03/27 08:59:20;;;;;;;9.13;3.70;;;11.10;99.90;;;;;;4956102;28;20022;-84
2024/03/27 09:01:45;;;;;;;15.40;4.57;;;11.20;99.90;;;;;;4955245;28;20035;-84
2024/03/27 09:04:11;;;;;;;20.53;4.63;;;11.30;99.90;;;;;;4954563;28;20026;-84
2024/03/27 09:06:37;;;;;;;15.60;4.55;;;11.30;99.90;;;;;;4954511;28;20121;-84
2024/03/27 09:09:03;;;;;;;16.95;6.22;;;11.40;99.90;;;;;;4953195;28;20055;-84
2024/03/27 09:11:28;;;;;;;10.52;4.80;;;11.50;99.90;;;;;;4954130;28;20046;-85
2024/03/27 09:13:55;;;;;;;9.07;4.00;;;11.60;99.90;;;;;;4957301;28;20090;-84
2024/03/27 09:16:20;;;;;;;7.97;3.95;;;11.70;99.90;;;;;;4952567;28;20114;-84
2024/03/27 09:18:46;;;;;;;14.93;3.55;;;11.80;99.90;;;;;;4954657;28;20113;-84
2024/03/27 09:21:11;;;;;;;10.02;4.40;;;12.00;99.90;;;;;;4954668;28;21412;-84
2024/03/27 09:23:37;;;;;;;10.45;3.40;;;12.30;99.90;;;;;;4955657;28;20066;-84
2024/03/27 09:26:04;;;;;;;10.95;3.33;;;12.60;99.90;;;;;;4954536;28;20031;-84
2024/03/27 09:28:30;;;;;;;14.32;3.90;;;12.90;99.90;;;;;;4955347;28;20063;-84
2024/03/27 09:30:56;;;;;;;13.30;3.17;;;13.20;99.90;;;;;;4954067;28;20165;-85
2024/03/27 09:33:25;;;;;;;12.23;3.65;;;13.50;99.90;;;;;;4938614;28;20507;-84
2024/03/27 09:35:51;;;;;;;11.32;3.13;;;13.90;99.90;;;;;;4939080;28;20022;-85
2024/03/27 09:38:17;;;;;;;12.60;3.17;;;14.20;99.90;;;;;;4957764;28;20565;-84
2024/03/27 09:40:47;;;;;;;13.40;3.47;;;14.40;99.90;;;;;;4954384;28;20042;-85
2024/03/27 09:43:15;;;;;;;9.48;3.00;;;14.70;99.90;;;;;;4958857;28;20030;-85
2024/03/27 09:45:45;;;;;;;9.25;2.70;;;14.90;99.90;;;;;;4958727;28;20038;-84
2024/03/27 09:48:10;;;;;;;12.15;3.20;;;15.00;99.90;;;;;;4958388;28;20043;-85
2024/03/27 09:50:38;;;;;;;11.57;2.78;;;15.20;99.90;;;;;;4958217;28;20018;-85
2024/03/27 09:53:04;;;;;;;10.25;2.60;;;15.40;99.90;;;;;;4958683;28;20531;-84
2024/03/27 09:55:37;;;;;;;9.90;2.60;;;15.60;99.90;;;;;;4959791;28;20034;-84
2024/03/27 09:58:15;;;;;;;7.57;2.58;;;15.70;99.90;;;;;;4960270;28;20054;-84
2024/03/27 10:00:41;;;;;;;7.43;2.85;;;16.00;99.90;;;;;;4959407;28;20039;-84
2024/03/27 10:03:07;;;;;;;6.03;2.55;;;16.20;99.90;;;;;;4941374;28;20121;-84
2024/03/27 10:05:33;;;;;;;7.25;2.28;;;16.30;99.90;;;;;;4958905;28;20684;-84
2024/03/27 10:07:59;;;;;;;6.57;2.17;;;16.50;99.90;;;;;;4958631;28;20027;-85
2024/03/27 10:10:26;;;;;;;7.05;1.92;;;16.80;99.90;;;;;;4944856;28;20026;-84
2024/03/27 10:12:53;;;;;;;7.95;1.77;;;17.10;99.90;;;;;;4960354;28;20492;-84
2024/03/27 10:15:19;;;;;;;4.67;1.67;;;17.50;99.90;;;;;;4960226;28;20089;-84
2024/03/27 10:17:44;;;;;;;5.63;1.77;;;17.70;99.90;;;;;;4956443;28;20027;-86
2024/03/27 10:20:10;;;;;;;8.75;1.40;;;18.10;99.90;;;;;;4953504;28;20027;-86
2024/03/27 10:22:38;;;;;;;5.03;1.30;;;18.40;99.90;;;;;;4935408;28;20037;-87
2024/03/27 10:25:05;;;;;;;7.72;1.40;;;18.60;99.90;;;;;;4952473;28;21187;-87
2024/03/27 10:27:32;;;;;;;5.27;1.43;;;18.90;99.90;;;;;;4952991;28;20047;-87
2024/03/27 10:29:57;;;;;;;;;;;19.10;99.90;;;;;;4952717;28;20067;-88
2024/03/27 10:32:23;;;;;;;;;;;19.20;99.90;;;;;;4952644;28;20176;-87
2024/03/27 10:34:49;;;;;;;;;;;19.20;99.90;;;;;;4954225;28;20507;-87
2024/03/27 10:37:15;;;;;;;3.15;1.45;;;19.10;99.90;;;;;;4951384;28;20051;-88
2024/03/27 10:39:51;;;;;;;5.17;1.20;;;19.10;99.90;;;;;;4953542;28;20449;-87
2024/03/27 10:42:24;;;;;;;4.07;1.10;;;19.40;99.90;;;;;;4954698;28;20069;-87
2024/03/27 10:44:54;;;;;;;7.95;1.40;;;19.50;99.90;;;;;;4953522;28;20081;-86
2024/03/27 10:47:22;;;;;;;7.13;1.10;;;19.80;99.90;;;;;;4954291;28;20030;-87
2024/03/27 10:49:49;;;;;;;2.00;1.00;;;19.90;99.90;;;;;;4954273;28;20055;-87
2024/03/27 10:52:14;;;;;;;2.00;0.70;;;20.10;99.90;;;;;;4953603;28;20063;-88
2024/03/27 10:54:46;;;;;;;;;;;20.20;99.90;;;;;;4955185;28;19909;-87
2024/03/27 10:57:12;;;;;;;;;;;20.20;99.90;;;;;;4952007;28;20043;-87
2024/03/27 10:59:40;;;;;;;;;;;20.20;99.90;;;;;;4951191;28;20129;-88
2024/03/27 11:02:11;;;;;;;3.30;0.85;;;20.20;99.90;;;;;;4952963;28;20039;-87
2024/03/27 11:04:40;;;;;;;;;;;20.20;99.90;;;;;;4952384;28;19926;-87
2024/03/27 11:07:07;;;;;;;4.90;1.00;;;20.20;99.90;;;;;;4953292;28;20707;-87
2024/03/27 11:09:34;;;;;;;1.90;0.90;;;20.10;99.90;;;;;;4952297;28;20051;-87
2024/03/27 11:12:01;;;;;;;4.05;1.10;;;20.10;99.90;;;;;;4954742;28;19910;-87
2024/03/27 11:14:26;;;;;;;1.70;0.80;;;20.10;99.90;;;;;;4952689;28;20087;-87
2024/03/27 11:16:52;;;;;;;;;;;20.10;99.90;;;;;;4952127;28;20187;-87
2024/03/27 11:19:40;;;;;;;3.60;1.00;;;20.20;99.90;;;;;;4952886;28;20079;-88
2024/03/27 11:22:16;;;;;;;5.13;1.03;;;20.30;99.90;;;;;;4953302;28;20040;-86
2024/03/27 11:24:44;;;;;;;3.20;0.80;;;20.40;99.90;;;;;;4953331;28;20077;-86
2024/03/27 11:27:10;;;;;;;4.97;1.60;;;20.50;99.90;;;;;;4953989;28;20122;-86
2024/03/27 11:29:36;;;;;;;3.37;0.90;;;20.60;99.90;;;;;;4953338;28;20035;-84
2024/03/27 11:32:03;;;;;;;4.45;1.10;;;20.90;99.90;;;;;;4953312;28;20035;-84
2024/03/27 11:34:30;;;;;;;4.83;1.00;;;21.20;99.90;;;;;;4951628;28;20182;-84
2024/03/27 11:36:55;;;;;;;;;;;21.50;99.90;;;;;;4951724;28;20171;-84
2024/03/27 11:39:21;;;;;;;;;;;21.90;99.90;;;;;;4953508;28;20093;-84
2024/03/27 11:41:47;;;;;;;;;;;22.10;99.40;;;;;;4937386;28;20042;-83
2024/03/27 11:44:16;;;;;;;;;;;22.40;97.80;;;;;;4951002;28;20039;-82
2024/03/27 11:46:41;;;;;;;;;;;22.60;98.60;;;;;;4949828;28;20054;-83
2024/03/27 11:49:07;;;;;;;;;;;22.90;96.90;;;;;;4954140;28;20188;-83
2024/03/27 11:51:33;;;;;;;2.10;1.00;;;23.10;95.90;;;;;;4955549;28;20027;-83
2024/03/27 11:53:58;;;;;;;;;;;23.30;95.10;;;;;;4955969;28;19914;-83
2024/03/27 11:56:34;;;;;;;;;;;23.50;94.90;;;;;;4951287;28;20716;-82
2024/03/27 11:59:00;;;;;;;3.80;0.80;;;23.80;95.50;;;;;;4950453;28;20044;-83
2024/03/27 12:01:26;;;;;;;;;;;23.90;95.00;;;;;;4953487;28;20290;-83
2024/03/27 12:03:53;;;;;;;2.27;0.97;;;24.10;93.80;;;;;;4951612;28;20054;-82
2024/03/27 12:06:19;;;;;;;5.07;1.00;;;24.10;93.70;;;;;;4953163;28;19914;-83
2024/03/27 12:08:47;;;;;;;1.08;0.77;;;24.20;92.00;;;;;;4951693;28;20030;-82
2024/03/27 12:11:13;;;;;;;2.65;0.80;;;24.10;93.10;;;;;;4951871;28;20432;-83
2024/03/27 12:13:39;;;;;;;2.58;0.73;;;24.20;92.00;;;;;;4954577;28;20027;-82
2024/03/27 12:16:12;;;;;;;2.15;0.95;;;24.30;92.10;;;;;;4954906;28;20026;-82
2024/03/27 12:18:39;;;;;;;2.00;0.75;;;24.50;91.50;;;;;;4956470;28;20027;-83
2024/03/27 12:21:09;;;;;;;2.35;0.88;;;24.50;91.10;;;;;;4951426;28;20519;-82
2024/03/27 12:23:36;;;;;;;5.10;1.05;;;24.40;88.80;;;;;;4951574;28;20033;-83
2024/03/27 12:26:03;;;;;;;4.85;1.00;;;24.20;88.80;;;;;;4951396;28;20400;-83
2024/03/27 12:28:29;;;;;;;3.35;0.80;;;24.00;88.20;;;;;;4949657;28;20027;-82
2024/03/27 12:30:56;;;;;;;4.00;1.00;;;23.60;88.70;;;;;;4953252;28;20023;-82
2024/03/27 12:33:23;;;;;;;3.42;1.00;;;23.10;90.20;;;;;;4952411;28;20034;-82
2024/03/27 12:35:49;;;;;;;7.20;0.98;;;22.80;90.50;;;;;;4949943;28;20618;-83
2024/03/27 12:38:14;;;;;;;3.15;0.85;;;22.60;90.20;;;;;;4951646;28;20035;-82
2024/03/27 12:40:40;;;;;;;2.70;0.80;;;22.60;90.00;;;;;;4951911;28;20060;-82
2024/03/27 12:43:05;;;;;;;2.60;0.80;;;22.50;91.20;;;;;;4954326;28;19914;-82
2024/03/27 12:45:31;;;;;;;7.15;0.80;;;22.40;90.30;;;;;;4952033;28;21341;-82